This is the latest recevied weather packets stored in our database for station/object K0FJ-1. If no packets are shown the sender has not sent any weather packets the latest 1 day(s).
| Time | Temp. | Humidity | Pressure | Rain* | Wind** | Luminosity | Snow |
|---|---|---|---|---|---|---|---|
| 1778101805 | 10° C | 72% | 1019.8 hPa | 0 mm | - | - | - |
| 1778098205 | 7.78° C | 83% | 1020.2 hPa | 0 mm | - | - | - |
| 1778095204 | 7.22° C | 85% | 1020.5 hPa | 0 mm | - | - | - |
| 1778092205 | 6.67° C | 88% | 1020.8 hPa | 0.25 mm | - | - | - |
| 1778087704 | 6.11° C | 89% | 1021.1 hPa | 0 mm | - | - | - |
| 1778087404 | 6.11° C | 88% | 1021.1 hPa | 0 mm | - | - | - |
| 1778071205 | 2.22° C | 95% | 1019.4 hPa | 0.76 mm | - | - | - |
| 1778068205 | 2.22° C | 94% | 1018.9 hPa | 1.02 mm | - | - | - |
| 1778067904 | 2.22° C | 94% | 1018.7 hPa | 1.27 mm | - | - | - |
| 1778067004 | 2.22° C | 94% | 1018.6 hPa | 1.27 mm | - | - | - |
| 1778061605 | 3.33° C | 95% | 1017.9 hPa | 0.76 mm | - | - | - |
| 1778058605 | 3.33° C | 95% | 1017.4 hPa | 0 mm | - | - | - |
| 1778056505 | 3.33° C | 95% | 1017.2 hPa | 0.25 mm | - | - | - |
| 1778056204 | 3.33° C | 95% | 1017.2 hPa | 0.25 mm | - | - | - |
| 1778055605 | 3.33° C | 95% | 1017.3 hPa | 0.25 mm | - | - | - |
| 1778053805 | 3.33° C | 94% | 1017.5 hPa | 0.25 mm | - | - | - |
| 1778052605 | 3.33° C | 94% | 1017.5 hPa | 0.51 mm | - | - | - |
| 1778050505 | 3.33° C | 94% | 1017.5 hPa | 0.76 mm | - | - | - |
| 1778049305 | 3.33° C | 94% | 1017.6 hPa | 1.02 mm | - | - | - |
| 1778048404 | 3.33° C | 94% | 1017.6 hPa | 1.02 mm | - | - | - |
| 1778045704 | 3.89° C | 94% | 1017.1 hPa | 1.02 mm | - | - | - |
| 1778044805 | 3.89° C | 94% | 1017 hPa | 0.76 mm | - | - | - |
| 1778044504 | 3.89° C | 94% | 1017 hPa | 1.02 mm | - | - | - |
| 1778043604 | 3.89° C | 94% | 1016.9 hPa | 1.02 mm | - | - | - |
| 1778041205 | 3.89° C | 94% | 1016.9 hPa | 1.52 mm | - | - | - |
* Rain latest hour (hover to see other rain measurements)
** Current wind speed in m/s (hover to see current wind gust speed)